createdAt,value
2022-08-18T00:00:56.612Z,20
2022-08-18T00:01:56.609Z,20
2022-08-18T00:02:56.586Z,20
2022-08-18T00:03:56.575Z,20
2022-08-18T00:04:56.575Z,20
2022-08-18T00:05:56.571Z,20
2022-08-18T00:06:56.550Z,20
2022-08-18T00:07:56.535Z,20
2022-08-18T00:08:56.558Z,20
2022-08-18T00:09:56.569Z,20
2022-08-18T00:10:56.507Z,20
2022-08-18T00:11:56.494Z,20
2022-08-18T00:12:56.480Z,20
2022-08-18T00:13:56.465Z,20
2022-08-18T00:14:56.460Z,20
2022-08-18T00:15:56.457Z,20
2022-08-18T00:16:56.452Z,20
2022-08-18T00:17:56.444Z,20
2022-08-18T00:18:56.413Z,20
2022-08-18T00:19:56.404Z,20
2022-08-18T00:20:56.399Z,20
2022-08-18T00:21:56.377Z,20
2022-08-18T00:22:56.373Z,20
2022-08-18T00:23:56.388Z,20
2022-08-18T00:24:56.348Z,20
2022-08-18T00:25:56.347Z,20
2022-08-18T00:26:56.321Z,20
2022-08-18T00:27:56.317Z,20
2022-08-18T00:28:56.309Z,20
2022-08-18T00:29:56.286Z,20
2022-08-18T00:30:56.276Z,20
2022-08-18T00:31:56.267Z,20
2022-08-18T00:32:56.261Z,20
2022-08-18T00:33:56.251Z,20
2022-08-18T00:34:56.232Z,20
2022-08-18T00:35:56.253Z,20
2022-08-18T00:36:56.221Z,20
2022-08-18T00:37:56.213Z,20
2022-08-18T00:38:56.190Z,20
2022-08-18T00:39:56.187Z,20
2022-08-18T00:40:56.174Z,20
2022-08-18T00:41:56.159Z,20
2022-08-18T00:42:56.158Z,20
2022-08-18T00:43:56.142Z,20
2022-08-18T00:44:56.143Z,20
2022-08-18T00:45:56.139Z,20
2022-08-18T00:46:56.110Z,20
2022-08-18T00:47:56.109Z,20
2022-08-18T00:48:56.083Z,20
2022-08-18T00:49:56.086Z,20
2022-08-18T00:50:56.070Z,20
2022-08-18T00:51:56.049Z,20
2022-08-18T00:52:56.032Z,20
2022-08-18T00:53:56.026Z,20
2022-08-18T00:54:56.018Z,20
2022-08-18T00:55:55.999Z,20
2022-08-18T00:56:55.995Z,20
2022-08-18T00:57:55.986Z,20
2022-08-18T00:58:55.971Z,20
2022-08-18T00:59:55.960Z,20
2022-08-18T01:00:55.945Z,20
2022-08-18T01:01:55.935Z,20
2022-08-18T01:02:55.971Z,20
2022-08-18T01:03:55.915Z,20
2022-08-18T01:04:55.913Z,20
2022-08-18T01:05:55.931Z,20
2022-08-18T01:06:55.882Z,20
2022-08-18T01:07:55.873Z,20
2022-08-18T01:08:55.889Z,20
2022-08-18T01:09:55.851Z,20
2022-08-18T01:10:55.849Z,20
2022-08-18T01:11:55.826Z,20
2022-08-18T01:12:55.817Z,20
2022-08-18T01:13:55.827Z,20
2022-08-18T01:14:55.792Z,20
2022-08-18T01:15:55.792Z,20
2022-08-18T01:16:55.767Z,20
2022-08-18T01:17:55.756Z,20
2022-08-18T01:18:55.749Z,20
2022-08-18T01:19:55.739Z,20
2022-08-18T01:20:55.733Z,20
2022-08-18T01:21:55.728Z,20
2022-08-18T01:22:55.705Z,20
2022-08-18T01:23:55.695Z,20
2022-08-18T01:24:55.683Z,20
2022-08-18T01:25:55.673Z,20
2022-08-18T01:26:55.660Z,20
2022-08-18T01:27:55.664Z,20
2022-08-18T01:28:55.642Z,20
2022-08-18T01:29:55.632Z,20
2022-08-18T01:30:55.621Z,20
2022-08-18T01:31:55.609Z,20
2022-08-18T01:32:55.601Z,20
2022-08-18T01:33:55.592Z,20
2022-08-18T01:34:55.582Z,20
2022-08-18T01:35:55.624Z,20
2022-08-18T01:36:55.561Z,20
2022-08-18T01:37:55.549Z,20
2022-08-18T01:38:55.545Z,20
2022-08-18T01:39:55.557Z,20
2022-08-18T01:40:55.519Z,20
2022-08-18T01:41:55.506Z,20
2022-08-18T01:42:55.506Z,20
2022-08-18T01:43:55.500Z,20
2022-08-18T01:44:55.476Z,20
2022-08-18T01:45:55.477Z,20
2022-08-18T01:46:55.453Z,20
2022-08-18T01:47:55.449Z,20
2022-08-18T01:48:55.439Z,20
2022-08-18T01:49:55.434Z,20
2022-08-18T01:50:55.429Z,20
2022-08-18T01:51:55.404Z,20
2022-08-18T01:52:55.391Z,20
2022-08-18T01:53:55.385Z,20
2022-08-18T01:54:55.379Z,20
2022-08-18T01:55:55.360Z,20
2022-08-18T01:56:55.353Z,20
2022-08-18T01:57:55.342Z,20
2022-08-18T01:58:55.324Z,20
2022-08-18T01:59:55.357Z,20
2022-08-18T02:00:55.349Z,20
2022-08-18T02:01:55.300Z,20
2022-08-18T02:02:55.281Z,20
2022-08-18T02:03:55.268Z,20
2022-08-18T02:04:55.262Z,20
2022-08-18T02:05:55.248Z,20
2022-08-18T02:06:55.237Z,20
2022-08-18T02:07:55.235Z,20
2022-08-18T02:08:55.227Z,20
2022-08-18T02:09:55.227Z,20
2022-08-18T02:10:55.194Z,20
2022-08-18T02:11:55.192Z,20
2022-08-18T02:12:55.176Z,20
2022-08-18T02:13:55.157Z,20
2022-08-18T02:14:55.159Z,20
2022-08-18T02:15:55.145Z,20
2022-08-18T02:16:55.131Z,20
2022-08-18T02:17:55.123Z,20
2022-08-18T02:18:55.112Z,20
2022-08-18T02:19:55.109Z,20
2022-08-18T02:20:55.109Z,20
2022-08-18T02:21:55.084Z,20
2022-08-18T02:22:55.072Z,20
2022-08-18T02:24:01.944Z,20
2022-08-18T02:24:55.049Z,20
2022-08-18T02:25:55.032Z,20
2022-08-18T02:26:55.022Z,20
2022-08-18T02:27:55.014Z,20
2022-08-18T02:28:55.016Z,20
2022-08-18T02:29:54.996Z,20
2022-08-18T02:30:54.985Z,20
2022-08-18T02:31:54.970Z,20
2022-08-18T02:32:54.980Z,20
2022-08-18T02:33:54.950Z,20
2022-08-18T02:34:54.945Z,20
2022-08-18T02:35:54.929Z,20
2022-08-18T02:36:54.917Z,20
2022-08-18T02:37:54.907Z,20
2022-08-18T02:38:54.904Z,20
2022-08-18T02:39:54.892Z,20
2022-08-18T02:40:54.883Z,20
2022-08-18T02:41:54.884Z,20
2022-08-18T02:42:54.850Z,20
2022-08-18T02:43:54.844Z,20
2022-08-18T02:44:54.848Z,20
2022-08-18T02:45:54.827Z,20
2022-08-18T02:46:54.818Z,20
2022-08-18T02:47:54.811Z,20
2022-08-18T02:48:54.795Z,20
2022-08-18T02:49:54.797Z,20
2022-08-18T02:50:54.786Z,20
2022-08-18T02:51:54.766Z,20
2022-08-18T02:52:54.768Z,20
2022-08-18T02:53:54.742Z,20
2022-08-18T02:54:54.741Z,20
2022-08-18T02:55:54.728Z,20
2022-08-18T02:56:54.714Z,20
2022-08-18T02:57:54.701Z,20
2022-08-18T02:58:54.712Z,20
2022-08-18T02:59:54.674Z,20
2022-08-18T03:00:54.674Z,24
2022-08-18T03:01:54.657Z,24
2022-08-18T03:02:54.654Z,24
2022-08-18T03:03:54.640Z,24
2022-08-18T03:04:54.646Z,24
2022-08-18T03:05:54.616Z,24
2022-08-18T03:06:54.620Z,24
2022-08-18T03:07:54.608Z,24
2022-08-18T03:08:54.581Z,24
2022-08-18T03:09:54.588Z,24
2022-08-18T03:10:54.576Z,24
2022-08-18T03:11:54.548Z,24
2022-08-18T03:12:54.542Z,24
2022-08-18T03:13:54.535Z,24
2022-08-18T03:14:54.537Z,24
2022-08-18T03:15:54.515Z,24
2022-08-18T03:16:54.499Z,24
2022-08-18T03:17:54.489Z,24
2022-08-18T03:18:54.483Z,24
2022-08-18T03:19:54.475Z,24
2022-08-18T03:20:54.455Z,24
2022-08-18T03:21:54.446Z,24
2022-08-18T03:22:54.434Z,24
2022-08-18T03:23:54.423Z,24
2022-08-18T03:24:54.410Z,24
2022-08-18T03:25:54.402Z,24
2022-08-18T03:26:54.393Z,24
2022-08-18T03:27:54.387Z,24
2022-08-18T03:28:54.376Z,24
2022-08-18T03:29:54.370Z,24
2022-08-18T03:30:54.341Z,24
2022-08-18T03:31:54.337Z,24
2022-08-18T03:32:54.348Z,24
2022-08-18T03:33:54.312Z,24
2022-08-18T03:34:54.310Z,24
2022-08-18T03:35:54.302Z,24
2022-08-18T03:36:54.284Z,24
2022-08-18T03:37:54.281Z,24
2022-08-18T03:38:54.270Z,28
2022-08-18T03:39:54.247Z,28
2022-08-18T03:40:54.241Z,28
2022-08-18T03:41:54.234Z,28
2022-08-18T03:42:54.229Z,28
2022-08-18T03:43:54.211Z,28
2022-08-18T03:44:54.201Z,24
2022-08-18T03:45:54.182Z,28
2022-08-18T03:46:54.198Z,28
2022-08-18T03:47:54.171Z,28
2022-08-18T03:48:54.165Z,28
2022-08-18T03:49:54.153Z,32
2022-08-18T03:50:54.141Z,28
2022-08-18T03:51:54.121Z,32
2022-08-18T03:52:54.114Z,32
2022-08-18T03:53:54.100Z,28
2022-08-18T03:54:54.095Z,32
2022-08-18T03:55:54.097Z,32
2022-08-18T03:56:54.068Z,32
2022-08-18T03:57:54.060Z,36
2022-08-18T03:58:54.053Z,36
2022-08-18T03:59:54.049Z,36
2022-08-18T04:00:54.044Z,36
2022-08-18T04:01:54.015Z,40
2022-08-18T04:02:54.000Z,44
2022-08-18T04:03:54.000Z,44
2022-08-18T04:04:53.985Z,52
2022-08-18T04:05:53.990Z,44
2022-08-18T04:06:53.974Z,44
2022-08-18T04:07:53.975Z,52
2022-08-18T04:08:53.952Z,48
2022-08-18T04:09:53.930Z,52
2022-08-18T04:10:53.934Z,56
2022-08-18T04:11:53.903Z,64
2022-08-18T04:12:53.902Z,64
2022-08-18T04:13:53.908Z,68
2022-08-18T04:14:53.875Z,84
2022-08-18T04:15:53.877Z,80
2022-08-18T04:16:53.852Z,88
2022-08-18T04:17:53.845Z,92
2022-08-18T04:18:53.843Z,96
2022-08-18T04:19:53.833Z,108
2022-08-18T04:20:53.816Z,124
2022-08-18T04:21:53.805Z,132
2022-08-18T04:22:53.794Z,144
2022-08-18T04:23:53.787Z,148
2022-08-18T04:24:53.775Z,160
2022-08-18T04:25:53.785Z,172
2022-08-18T04:26:53.744Z,184
2022-08-18T04:27:53.735Z,196
2022-08-18T04:28:53.734Z,212
2022-08-18T04:29:53.714Z,220
2022-08-18T04:30:53.724Z,236
2022-08-18T04:31:53.692Z,248
2022-08-18T04:32:53.685Z,272
2022-08-18T04:33:53.675Z,304
2022-08-18T04:34:53.661Z,324
2022-08-18T04:35:53.664Z,356
2022-08-18T04:36:53.646Z,404
2022-08-18T04:37:53.627Z,444
2022-08-18T04:38:53.631Z,480
2022-08-18T04:39:53.605Z,520
2022-08-18T04:40:53.613Z,552
2022-08-18T04:41:53.593Z,564
2022-08-18T04:42:53.573Z,584
2022-08-18T04:43:53.563Z,628
2022-08-18T04:44:53.554Z,664
2022-08-18T04:45:53.548Z,692
2022-08-18T04:46:53.537Z,688
2022-08-18T04:47:53.529Z,716
2022-08-18T04:48:53.512Z,764
2022-08-18T04:49:53.501Z,796
2022-08-18T04:50:53.513Z,832
2022-08-18T04:51:53.488Z,868
2022-08-18T04:52:53.468Z,900
2022-08-18T04:53:53.468Z,936
2022-08-18T04:54:53.446Z,972
2022-08-18T04:55:53.440Z,988
2022-08-18T04:56:53.423Z,1020
2022-08-18T04:57:53.412Z,1036
2022-08-18T04:58:53.401Z,1032
2022-08-18T04:59:53.410Z,1016
2022-08-18T05:00:53.387Z,1068
2022-08-18T05:01:53.365Z,1136
2022-08-18T05:02:53.362Z,1188
2022-08-18T05:03:53.350Z,1224
2022-08-18T05:04:53.342Z,1252
2022-08-18T05:05:53.345Z,1280
2022-08-18T05:06:53.312Z,1304
2022-08-18T05:07:53.312Z,1332
2022-08-18T05:08:53.298Z,1360
2022-08-18T05:09:53.285Z,1404
2022-08-18T05:10:53.285Z,1404
2022-08-18T05:11:53.262Z,1464
2022-08-18T05:12:53.252Z,1580
2022-08-18T05:13:53.243Z,1604
2022-08-18T05:14:53.240Z,1600
2022-08-18T05:15:53.220Z,1440
2022-08-18T05:16:53.215Z,1192
2022-08-18T05:17:53.207Z,1120
2022-08-18T05:18:53.195Z,1192
2022-08-18T05:19:53.176Z,1252
2022-08-18T05:20:53.167Z,1320
2022-08-18T05:21:53.157Z,1300
2022-08-18T05:22:53.142Z,1160
2022-08-18T05:23:53.144Z,924
2022-08-18T05:24:53.138Z,812
2022-08-18T05:25:53.118Z,952
2022-08-18T05:26:53.112Z,900
2022-08-18T05:27:53.090Z,1016
2022-08-18T05:28:53.081Z,1196
2022-08-18T05:29:53.081Z,1296
2022-08-18T05:30:53.080Z,1216
2022-08-18T05:31:53.048Z,1068
2022-08-18T05:32:53.036Z,1188
2022-08-18T05:33:53.027Z,1332
2022-08-18T05:34:53.021Z,1352
2022-08-18T05:35:53.042Z,1256
2022-08-18T05:36:52.992Z,1424
2022-08-18T05:37:52.981Z,1520
2022-08-18T05:38:52.982Z,1452
2022-08-18T05:39:52.960Z,1388
2022-08-18T05:40:52.981Z,1412
2022-08-18T05:41:53.938Z,1744
2022-08-18T05:42:52.936Z,2016
2022-08-18T05:43:52.935Z,2304
2022-08-18T05:44:52.919Z,2344
2022-08-18T05:45:52.916Z,2544
2022-08-18T05:46:52.898Z,2348
2022-08-18T05:47:52.873Z,2064
2022-08-18T05:48:52.865Z,2000
2022-08-18T05:49:52.858Z,1872
2022-08-18T05:50:52.858Z,1692
2022-08-18T05:51:52.837Z,1680
2022-08-18T05:52:52.828Z,1672
2022-08-18T05:53:52.815Z,1636
2022-08-18T05:54:52.804Z,1568
2022-08-18T05:55:52.810Z,1600
2022-08-18T05:56:52.788Z,1688
2022-08-18T05:57:52.774Z,1960
2022-08-18T05:58:52.772Z,2136
2022-08-18T05:59:52.745Z,2128
2022-08-18T06:00:52.761Z,2376
2022-08-18T06:01:52.729Z,2256
2022-08-18T06:02:52.712Z,1964
2022-08-18T06:03:52.706Z,2000
2022-08-18T06:04:52.686Z,1840
2022-08-18T06:05:52.697Z,1884
2022-08-18T06:06:52.670Z,1620
2022-08-18T06:07:52.661Z,1388
2022-08-18T06:08:52.659Z,1616
2022-08-18T06:09:52.642Z,1596
2022-08-18T06:10:52.645Z,1572
2022-08-18T06:11:52.614Z,1512
2022-08-18T06:12:52.602Z,1876
2022-08-18T06:13:52.601Z,2316
2022-08-18T06:14:52.586Z,2644
2022-08-18T06:15:52.605Z,2328
2022-08-18T06:16:52.566Z,2492
2022-08-18T06:17:52.553Z,2996
2022-08-18T06:18:52.547Z,3172
2022-08-18T06:19:52.529Z,3240
2022-08-18T06:20:52.547Z,3228
2022-08-18T06:21:52.506Z,3444
2022-08-18T06:22:52.495Z,3624
2022-08-18T06:23:52.496Z,3516
2022-08-18T06:24:52.476Z,3540
2022-08-18T06:25:52.479Z,3276
2022-08-18T06:26:52.455Z,3176
2022-08-18T06:27:52.442Z,3416
2022-08-18T06:28:52.442Z,3968
2022-08-18T06:29:52.422Z,3816
2022-08-18T06:30:52.413Z,3624
2022-08-18T06:31:52.412Z,3560
2022-08-18T06:32:52.398Z,3056
2022-08-18T06:33:52.376Z,3120
2022-08-18T06:34:52.404Z,2924
2022-08-18T06:35:52.356Z,2432
2022-08-18T06:36:52.354Z,2136
2022-08-18T06:37:52.345Z,2012
2022-08-18T06:38:52.323Z,1892
2022-08-18T06:39:52.317Z,1928
2022-08-18T06:40:52.333Z,1800
2022-08-18T06:41:52.296Z,1768
2022-08-18T06:42:52.282Z,1792
2022-08-18T06:43:52.274Z,1624
2022-08-18T06:44:52.268Z,1436
2022-08-18T06:45:52.281Z,1348
2022-08-18T06:46:52.254Z,1408
2022-08-18T06:47:52.228Z,1368
2022-08-18T06:48:52.221Z,1372
2022-08-18T06:49:52.202Z,1496
2022-08-18T06:50:52.230Z,1588
2022-08-18T06:51:52.189Z,1648
2022-08-18T06:52:52.177Z,1656
2022-08-18T06:53:52.188Z,1480
2022-08-18T06:54:52.164Z,1464
2022-08-18T06:55:52.150Z,1524
2022-08-18T06:56:52.134Z,1636
2022-08-18T06:57:52.123Z,1604
2022-08-18T06:58:52.108Z,1504
2022-08-18T06:59:52.125Z,1460
2022-08-18T07:00:52.142Z,1520
2022-08-18T07:01:52.087Z,1596
2022-08-18T07:02:52.094Z,1616
2022-08-18T07:03:52.060Z,1472
2022-08-18T07:04:52.079Z,1360
2022-08-18T07:05:52.054Z,1360
2022-08-18T07:06:52.045Z,1408
2022-08-18T07:07:52.018Z,1592
2022-08-18T07:08:52.015Z,1576
2022-08-18T07:09:51.987Z,1684
2022-08-18T07:10:52.027Z,1844
2022-08-18T07:11:51.975Z,2172
2022-08-18T07:12:51.965Z,2536
2022-08-18T07:13:51.972Z,2844
2022-08-18T07:14:51.939Z,2996
2022-08-18T07:15:51.929Z,3100
2022-08-18T07:16:51.934Z,3476
2022-08-18T07:17:51.918Z,3532
2022-08-18T07:18:51.897Z,3740
2022-08-18T07:19:51.895Z,4216
2022-08-18T07:20:51.879Z,4176
2022-08-18T07:21:51.879Z,4564
2022-08-18T07:22:51.867Z,4984
2022-08-18T07:23:51.842Z,5360
2022-08-18T07:24:51.831Z,5652
2022-08-18T07:25:51.840Z,5684
2022-08-18T07:26:51.812Z,5804
2022-08-18T07:27:51.799Z,6220
2022-08-18T07:28:51.808Z,6536
2022-08-18T07:29:51.824Z,6724
2022-08-18T07:30:51.764Z,6812
2022-08-18T07:31:51.770Z,6952
2022-08-18T07:32:51.740Z,7136
2022-08-18T07:33:51.739Z,7184
2022-08-18T07:34:51.733Z,7216
2022-08-18T07:35:51.724Z,7340
2022-08-18T07:36:51.704Z,7496
2022-08-18T07:37:51.701Z,7584
2022-08-18T07:38:51.814Z,7904
2022-08-18T07:39:51.677Z,7596
2022-08-18T07:40:51.664Z,7292
2022-08-18T07:41:51.646Z,6616
2022-08-18T07:42:51.643Z,6416
2022-08-18T07:43:51.637Z,6312
2022-08-18T07:44:51.683Z,6460
2022-08-18T07:45:51.620Z,6232
2022-08-18T07:46:51.597Z,6092
2022-08-18T07:47:51.586Z,6420
2022-08-18T07:48:51.637Z,6824
2022-08-18T07:49:51.572Z,7420
2022-08-18T07:50:51.566Z,8028
2022-08-18T07:51:51.547Z,8680
2022-08-18T07:52:51.563Z,10800
2022-08-18T07:53:51.522Z,14704
2022-08-18T07:54:51.511Z,14688
2022-08-18T07:55:51.501Z,13100
2022-08-18T07:56:51.493Z,12032
2022-08-18T07:57:51.495Z,11788
2022-08-18T07:58:51.491Z,14700
2022-08-18T07:59:51.457Z,14768
2022-08-18T08:00:51.457Z,13848
2022-08-18T08:01:51.449Z,12900
2022-08-18T08:02:51.449Z,12420
2022-08-18T08:03:51.420Z,13872
2022-08-18T08:04:51.422Z,14196
2022-08-18T08:05:51.404Z,13916
2022-08-18T08:06:51.385Z,12532
2022-08-18T08:07:51.374Z,13228
2022-08-18T08:08:51.366Z,12284
2022-08-18T08:09:51.405Z,11900
2022-08-18T08:10:51.363Z,12104
2022-08-18T08:11:51.333Z,12704
2022-08-18T08:12:51.320Z,12872
2022-08-18T08:13:51.320Z,10140
2022-08-18T08:14:51.318Z,11676
2022-08-18T08:15:51.292Z,10352
2022-08-18T08:16:51.276Z,13624
2022-08-18T08:17:51.267Z,9120
2022-08-18T08:18:51.279Z,8128
2022-08-18T08:19:51.242Z,7704
2022-08-18T08:20:51.232Z,9524
2022-08-18T08:21:51.220Z,9816
2022-08-18T08:22:51.212Z,9552
2022-08-18T08:23:51.199Z,10508
2022-08-18T08:24:51.195Z,14036
2022-08-18T08:25:51.183Z,14016
2022-08-18T08:26:51.167Z,10308
2022-08-18T08:27:51.159Z,8884
2022-08-18T08:28:51.143Z,8880
2022-08-18T08:29:51.141Z,9388
2022-08-18T08:30:51.136Z,10544
2022-08-18T08:31:51.113Z,10688
2022-08-18T08:32:51.103Z,8048
2022-08-18T08:33:51.100Z,6580
2022-08-18T08:34:51.078Z,6116
2022-08-18T08:35:51.069Z,5760
2022-08-18T08:36:51.073Z,5292
2022-08-18T08:37:51.079Z,5392
2022-08-18T08:38:51.044Z,6100
2022-08-18T08:39:51.039Z,7364
2022-08-18T08:40:51.019Z,9084
2022-08-18T08:41:51.007Z,9632
2022-08-18T08:42:51.006Z,8804
2022-08-18T08:43:50.986Z,7856
2022-08-18T08:44:50.978Z,7920
2022-08-18T08:45:51.029Z,7432
2022-08-18T08:46:50.956Z,7312
2022-08-18T08:47:50.945Z,8012
2022-08-18T08:48:50.941Z,8724
2022-08-18T08:49:50.934Z,8556
2022-08-18T08:50:50.908Z,7832
2022-08-18T08:51:50.935Z,7428
2022-08-18T08:52:50.919Z,6964
2022-08-18T08:53:50.877Z,6872
2022-08-18T08:54:50.870Z,6868
2022-08-18T08:55:50.862Z,7024
2022-08-18T08:56:50.842Z,7812
2022-08-18T08:57:50.834Z,8120
2022-08-18T08:58:50.829Z,8152
2022-08-18T08:59:50.818Z,7552
2022-08-18T09:00:50.830Z,7208
2022-08-18T09:01:50.799Z,6728
2022-08-18T09:02:50.791Z,6692
2022-08-18T09:03:50.773Z,6700
2022-08-18T09:04:50.768Z,6980
2022-08-18T09:05:50.775Z,7372
2022-08-18T09:06:50.738Z,7696
2022-08-18T09:07:50.733Z,8200
2022-08-18T09:08:50.720Z,8604
2022-08-18T09:09:50.705Z,8516
2022-08-18T09:10:50.706Z,8088
2022-08-18T09:11:50.695Z,7560
2022-08-18T09:12:50.720Z,7180
2022-08-18T09:13:50.669Z,7120
2022-08-18T09:14:50.716Z,7944
2022-08-18T09:15:50.680Z,9484
2022-08-18T09:16:50.632Z,10960
2022-08-18T09:17:50.618Z,12400
2022-08-18T09:18:50.648Z,20928
2022-08-18T09:19:50.600Z,15688
2022-08-18T09:20:50.599Z,33984
2022-08-18T09:21:50.578Z,39680
2022-08-18T09:22:50.566Z,33824
2022-08-18T09:23:50.569Z,31072
2022-08-18T09:24:50.551Z,23520
2022-08-18T09:25:50.556Z,24608
2022-08-18T09:26:59.104Z,17052
2022-08-18T09:27:50.510Z,16108
2022-08-18T09:28:58.065Z,15856
2022-08-18T09:29:58.056Z,24416
2022-08-18T09:30:50.505Z,18144
2022-08-18T09:31:50.473Z,17408
2022-08-18T09:32:58.009Z,30560
2022-08-18T09:33:59.019Z,19264
2022-08-18T09:34:50.441Z,13564
2022-08-18T09:35:50.424Z,11320
2022-08-18T09:36:50.419Z,10104
2022-08-18T09:37:50.409Z,9176
2022-08-18T09:38:50.396Z,8224
2022-08-18T09:39:50.416Z,7472
2022-08-18T09:40:50.371Z,6960
2022-08-18T09:41:50.382Z,6580
2022-08-18T09:42:50.353Z,6380
2022-08-18T09:43:50.347Z,5964
2022-08-18T09:44:57.891Z,6288
2022-08-18T09:45:50.323Z,6448
2022-08-18T09:46:50.311Z,6656
2022-08-18T09:47:50.297Z,6700
2022-08-18T09:48:50.310Z,6640
2022-08-18T09:49:50.287Z,6396
2022-08-18T09:50:50.279Z,6028
2022-08-18T09:51:50.259Z,5620
2022-08-18T09:52:50.253Z,5216
2022-08-18T09:53:50.238Z,4940
2022-08-18T09:54:50.272Z,4904
2022-08-18T09:55:50.299Z,5100
2022-08-18T09:56:50.201Z,5420
2022-08-18T09:57:50.198Z,5808
2022-08-18T09:58:50.206Z,6280
2022-08-18T09:59:50.171Z,6864
2022-08-18T10:00:50.175Z,7460
2022-08-18T10:01:57.712Z,8072
2022-08-18T10:02:50.152Z,8760
2022-08-18T10:03:50.135Z,9556
2022-08-18T10:04:50.125Z,10424
2022-08-18T10:05:50.110Z,11272
2022-08-18T10:06:50.105Z,11908
2022-08-18T10:07:50.089Z,12628
2022-08-18T10:08:50.079Z,11608
2022-08-18T10:09:50.072Z,10348
2022-08-18T10:11:50.042Z,8432
2022-08-18T10:12:50.065Z,7428
2022-08-18T10:13:50.048Z,6900
2022-08-18T10:14:50.015Z,6816
2022-08-18T10:15:50.010Z,6472
2022-08-18T10:17:50.016Z,6320
2022-08-18T10:18:50.047Z,6052
2022-08-18T10:19:49.986Z,6232
2022-08-18T10:20:49.998Z,6372
2022-08-18T10:21:49.954Z,6408
2022-08-18T10:22:49.926Z,6120
2022-08-18T10:23:49.944Z,5872
2022-08-18T10:24:49.919Z,5704
2022-08-18T10:25:49.897Z,5616
2022-08-18T10:26:49.891Z,5684
2022-08-18T10:27:49.891Z,5748
2022-08-18T10:28:49.913Z,5640
2022-08-18T10:29:49.871Z,5568
2022-08-18T10:31:49.870Z,5688
2022-08-18T10:32:49.846Z,5904
2022-08-18T10:33:49.815Z,6164
2022-08-18T10:34:49.803Z,6468
2022-08-18T10:35:49.794Z,6728
2022-08-18T10:36:49.783Z,7068
2022-08-18T10:37:49.783Z,7524
2022-08-18T10:38:49.761Z,7968
2022-08-18T10:39:49.751Z,8468
2022-08-18T10:40:49.762Z,8736
2022-08-18T10:41:49.733Z,8960
2022-08-18T10:42:49.718Z,9100
2022-08-18T10:43:49.709Z,9120
2022-08-18T10:44:49.698Z,8844
2022-08-18T10:45:49.703Z,8484
2022-08-18T10:46:49.695Z,8164
2022-08-18T10:47:49.670Z,7948
2022-08-18T10:48:49.655Z,7876
2022-08-18T10:49:49.681Z,8188
2022-08-18T10:50:49.655Z,8908
2022-08-18T10:52:49.665Z,10492
2022-08-18T10:53:49.607Z,10944
2022-08-18T10:54:49.588Z,11512
2022-08-18T10:55:49.584Z,12632
2022-08-18T10:56:49.577Z,13716
2022-08-18T10:57:49.566Z,13800
2022-08-18T10:58:49.548Z,13132
2022-08-18T10:59:49.535Z,12200
2022-08-18T11:00:49.524Z,11356
2022-08-18T11:01:49.544Z,12684
2022-08-18T11:02:49.507Z,8432
2022-08-18T11:03:49.499Z,7764
2022-08-18T11:04:49.484Z,7408
2022-08-18T11:05:49.469Z,7176
2022-08-18T11:06:49.460Z,7212
2022-08-18T11:07:49.467Z,7356
2022-08-18T11:08:49.438Z,7716
2022-08-18T11:09:49.428Z,8372
2022-08-18T11:10:49.447Z,13796
2022-08-18T11:11:49.406Z,9496
2022-08-18T11:12:49.395Z,9840
2022-08-18T11:13:49.392Z,10004
2022-08-18T11:15:49.378Z,9436
2022-08-18T11:16:49.360Z,8896
2022-08-18T11:17:49.404Z,8120
2022-08-18T11:18:50.190Z,7176
2022-08-18T11:19:49.321Z,6040
2022-08-18T11:20:49.315Z,5404
2022-08-18T11:21:49.299Z,5160
2022-08-18T11:22:49.287Z,5160
2022-08-18T11:23:49.293Z,5312
2022-08-18T11:24:49.271Z,5560
2022-08-18T11:25:49.254Z,5844
2022-08-18T11:27:49.236Z,6244
2022-08-18T11:28:49.227Z,6340
2022-08-18T11:29:49.216Z,6376
2022-08-18T11:30:49.238Z,6460
2022-08-18T11:31:49.207Z,6472
2022-08-18T11:32:49.200Z,6536
2022-08-18T11:33:49.176Z,6412
2022-08-18T11:34:49.196Z,6408
2022-08-18T11:35:49.152Z,6428
2022-08-18T11:36:49.163Z,6440
2022-08-18T11:37:49.143Z,6396
2022-08-18T11:38:49.124Z,6300
2022-08-18T11:39:49.107Z,6156
2022-08-18T11:40:49.115Z,5992
2022-08-18T11:41:49.103Z,5936
2022-08-18T11:42:49.073Z,5928
2022-08-18T11:43:49.062Z,6036
2022-08-18T11:44:49.065Z,6164
2022-08-18T11:45:49.047Z,6340
2022-08-18T11:46:49.085Z,6296
2022-08-18T11:47:49.024Z,6284
2022-08-18T11:48:49.021Z,6480
2022-08-18T11:49:49.632Z,6712
2022-08-18T11:50:49.008Z,7280
2022-08-18T11:51:48.980Z,7228
2022-08-18T11:52:48.982Z,7096
2022-08-18T11:53:48.957Z,6828
2022-08-18T11:54:48.949Z,6628
2022-08-18T11:55:48.938Z,7208
2022-08-18T11:56:48.928Z,8600
2022-08-18T11:57:48.916Z,9248
2022-08-18T11:58:48.904Z,10104
2022-08-18T11:59:48.906Z,12528
2022-08-18T12:00:48.884Z,14752
2022-08-18T12:01:48.879Z,13252
2022-08-18T12:02:48.872Z,13260
2022-08-18T12:03:48.853Z,12648
2022-08-18T12:04:48.849Z,12064
2022-08-18T12:05:48.834Z,13180
2022-08-18T12:06:48.842Z,13764
2022-08-18T12:07:48.813Z,13044
2022-08-18T12:08:48.808Z,12540
2022-08-18T12:09:48.784Z,12136
2022-08-18T12:10:48.776Z,12728
2022-08-18T12:11:48.769Z,13068
2022-08-18T12:12:48.758Z,12532
2022-08-18T12:13:48.759Z,13700
2022-08-18T12:14:48.737Z,14696
2022-08-18T12:15:48.721Z,15904
2022-08-18T12:16:48.717Z,17344
2022-08-18T12:17:48.715Z,19424
2022-08-18T12:18:48.694Z,22432
2022-08-18T12:19:48.688Z,21600
2022-08-18T12:20:48.682Z,23712
2022-08-18T12:21:48.662Z,27392
2022-08-18T12:22:48.662Z,29824
2022-08-18T12:23:48.639Z,29440
2022-08-18T12:24:48.627Z,27744
2022-08-18T12:25:48.624Z,24736
2022-08-18T12:26:48.606Z,23904
2022-08-18T12:27:48.608Z,20288
2022-08-18T12:28:48.583Z,19200
2022-08-18T12:29:48.614Z,18240
2022-08-18T12:30:48.567Z,18624
2022-08-18T12:31:48.565Z,19936
2022-08-18T12:33:48.534Z,22016
2022-08-18T12:34:48.660Z,24832
2022-08-18T12:35:48.514Z,18336
2022-08-18T12:36:48.502Z,15500
2022-08-18T12:37:48.497Z,21664
2022-08-18T12:38:48.484Z,63776
2022-08-18T12:39:48.521Z,52352
2022-08-18T12:40:48.457Z,23456
2022-08-18T12:41:48.444Z,20384
2022-08-18T12:42:48.453Z,27616
2022-08-18T12:43:48.443Z,20544
2022-08-18T12:44:48.410Z,20352
2022-08-18T12:45:48.400Z,53568
2022-08-18T12:46:48.389Z,57952
2022-08-18T12:47:48.385Z,46784
2022-08-18T12:48:48.381Z,60224
2022-08-18T12:49:48.358Z,23520
2022-08-18T12:50:48.351Z,18432
2022-08-18T12:51:48.344Z,17292
2022-08-18T12:52:48.323Z,19232
2022-08-18T12:53:48.319Z,57088
2022-08-18T12:54:48.335Z,62752
2022-08-18T12:55:48.305Z,64512
2022-08-18T12:56:48.312Z,64032
2022-08-18T12:58:48.276Z,65696
2022-08-18T12:59:48.258Z,65088
2022-08-18T13:00:48.249Z,63456
2022-08-18T13:01:48.244Z,63872
2022-08-18T13:02:48.285Z,60736
2022-08-18T13:03:48.226Z,57312
2022-08-18T13:04:48.212Z,61664
2022-08-18T13:05:48.194Z,62304
2022-08-18T13:06:48.202Z,20160
2022-08-18T13:07:48.185Z,17200
2022-08-18T13:08:48.170Z,21984
2022-08-18T13:09:55.800Z,51520
2022-08-18T13:10:48.145Z,31776
2022-08-18T13:11:48.140Z,57344
2022-08-18T13:12:48.131Z,57920
2022-08-18T13:13:48.155Z,59520
2022-08-18T13:14:48.108Z,48064
2022-08-18T13:15:48.087Z,26720
2022-08-18T13:16:48.080Z,22432
2022-08-18T13:17:48.074Z,22336
2022-08-18T13:18:48.062Z,22176
2022-08-18T13:19:48.068Z,22368
2022-08-18T13:20:48.039Z,22592
2022-08-18T13:21:48.035Z,23296
2022-08-18T13:22:48.021Z,24512
2022-08-18T13:23:48.012Z,24128
2022-08-18T13:24:48.003Z,23616
2022-08-18T13:25:48.041Z,20416
2022-08-18T13:26:48.013Z,18336
2022-08-18T13:27:47.986Z,17024
2022-08-18T13:28:47.960Z,16156
2022-08-18T13:29:47.952Z,16048
2022-08-18T13:30:47.965Z,16228
2022-08-18T13:31:47.920Z,17152
2022-08-18T13:32:47.932Z,19008
2022-08-18T13:33:47.898Z,20448
2022-08-18T13:34:47.892Z,19712
2022-08-18T13:35:47.886Z,20000
2022-08-18T13:36:47.876Z,21984
2022-08-18T13:37:47.873Z,21632
2022-08-18T13:38:47.864Z,22368
2022-08-18T13:39:47.855Z,19200